createdAt,value
2022-11-19T00:02:22.503Z,-2.20
2022-11-19T00:04:52.964Z,-2.10
2022-11-19T00:07:25.504Z,-2.10
2022-11-19T00:09:57.843Z,-2.10
2022-11-19T00:12:40.185Z,-2.20
2022-11-19T00:15:11.326Z,-2.10
2022-11-19T00:17:41.670Z,-2.20
2022-11-19T00:20:12.444Z,-2.10
2022-11-19T00:22:45.054Z,-2.10
2022-11-19T00:25:15.739Z,-2.40
2022-11-19T00:27:49.265Z,-2.50
2022-11-19T00:30:46.411Z,-2.40
2022-11-19T00:33:10.940Z,-2.40
2022-11-19T00:35:44.604Z,-2.40
2022-11-19T00:38:18.294Z,-2.60
2022-11-19T00:40:48.756Z,-2.50
2022-11-19T00:43:31.153Z,-2.40
2022-11-19T00:46:01.614Z,-2.40
2022-11-19T00:48:31.580Z,-2.40
2022-11-19T00:51:02.822Z,-2.40
2022-11-19T00:53:35.332Z,-2.60
2022-11-19T00:56:06.854Z,-2.40
2022-11-19T00:58:37.107Z,-2.30
2022-11-19T01:01:08.566Z,-2.40
2022-11-19T01:03:39.120Z,-2.40
2022-11-19T01:06:14.193Z,-2.70
2022-11-19T01:08:52.466Z,-2.50
2022-11-19T01:11:26.304Z,-2.60
2022-11-19T01:13:56.643Z,-2.40
2022-11-19T01:16:30.726Z,-2.60
2022-11-19T01:19:01.468Z,-2.40
2022-11-19T01:21:34.909Z,-2.40
2022-11-19T01:24:08.790Z,-2.60
2022-11-19T01:26:44.304Z,-2.50
2022-11-19T01:29:15.941Z,-2.60
2022-11-19T01:31:49.057Z,-2.60
2022-11-19T01:34:22.829Z,-2.60
2022-11-19T01:36:53.059Z,-2.60
2022-11-19T01:39:25.596Z,-2.60
2022-11-19T01:41:55.653Z,-2.60
2022-11-19T01:44:55.775Z,-2.70
2022-11-19T01:47:25.711Z,-2.70
2022-11-19T01:49:56.292Z,-2.60
2022-11-19T01:52:26.842Z,-2.50
2022-11-19T01:54:59.774Z,-3.00
2022-11-19T01:57:29.891Z,-2.80
2022-11-19T02:00:00.730Z,-2.80
2022-11-19T02:02:30.648Z,-2.90
2022-11-19T02:05:01.748Z,-2.80
2022-11-19T02:07:34.875Z,-2.90
2022-11-19T02:10:09.875Z,-3.10
2022-11-19T02:12:47.501Z,-3.00
2022-11-19T02:15:33.333Z,-3.10
2022-11-19T02:18:25.392Z,-3.10
2022-11-19T02:21:04.734Z,-3.10
2022-11-19T02:26:49.226Z,-3.00
2022-11-19T02:29:32.964Z,-3.00
2022-11-19T02:32:13.773Z,-3.00
2022-11-19T02:34:48.749Z,-3.50
2022-11-19T02:37:27.091Z,-3.10
2022-11-19T02:40:00.846Z,-3.10
2022-11-19T02:42:34.569Z,-3.10
2022-11-19T02:45:12.574Z,-3.30
2022-11-19T02:47:49.673Z,-3.10
2022-11-19T02:50:23.308Z,-3.30
2022-11-19T02:52:53.888Z,-3.50
2022-11-19T02:55:26.308Z,-3.20
2022-11-19T02:58:01.418Z,-3.30
2022-11-19T03:00:45.495Z,-3.10
2022-11-19T03:03:33.066Z,-3.20
2022-11-19T03:06:08.621Z,-3.30
2022-11-19T03:08:39.282Z,-3.40
2022-11-19T03:11:17.269Z,-3.20
2022-11-19T03:14:07.775Z,-3.30
2022-11-19T03:16:46.193Z,-3.50
2022-11-19T03:19:37.552Z,-4.00
2022-11-19T03:22:13.834Z,-3.50
2022-11-19T03:24:47.192Z,-3.60
2022-11-19T03:27:21.939Z,-4.00
2022-11-19T03:29:55.810Z,-3.50
2022-11-19T03:32:30.934Z,-3.60
2022-11-19T03:35:07.721Z,-3.60
2022-11-19T03:37:41.083Z,-3.60
2022-11-19T03:40:14.263Z,-3.50
2022-11-19T03:42:47.084Z,-3.80
2022-11-19T03:45:19.681Z,-3.70
2022-11-19T03:47:52.513Z,-4.00
2022-11-19T03:50:31.680Z,-3.70
2022-11-19T03:53:04.573Z,-3.90
2022-11-19T03:55:41.284Z,-3.60
2022-11-19T03:58:13.769Z,-3.90
2022-11-19T04:00:44.258Z,-3.80
2022-11-19T04:03:14.216Z,-3.70
2022-11-19T04:05:47.125Z,-3.80
2022-11-19T04:08:17.125Z,-3.70
2022-11-19T04:10:47.246Z,-4.00
2022-11-19T04:13:17.142Z,-4.20
2022-11-19T04:15:47.658Z,-4.10
2022-11-19T04:18:17.606Z,-4.10
2022-11-19T04:20:50.697Z,-4.60
2022-11-19T04:23:21.194Z,-4.70
2022-11-19T04:25:51.874Z,-4.10
2022-11-19T04:28:21.870Z,-4.30
2022-11-19T04:30:52.417Z,-4.10
2022-11-19T04:33:22.320Z,-4.10
2022-11-19T04:35:55.532Z,-4.10
2022-11-19T04:38:25.433Z,-4.00
2022-11-19T04:40:56.039Z,-3.90
2022-11-19T04:43:25.948Z,-3.90
2022-11-19T04:45:56.497Z,-3.90
2022-11-19T04:48:26.442Z,-4.00
2022-11-19T04:50:59.710Z,-3.70
2022-11-19T04:53:29.749Z,-3.90
2022-11-19T04:56:00.276Z,-4.00
2022-11-19T04:58:30.202Z,-3.70
2022-11-19T05:01:00.479Z,-4.00
2022-11-19T05:03:30.459Z,-3.80
2022-11-19T05:06:03.467Z,-3.70
2022-11-19T05:08:33.374Z,-3.80
2022-11-19T05:11:05.373Z,-3.90
2022-11-19T05:13:35.314Z,-3.80
2022-11-19T05:16:05.834Z,-4.10
2022-11-19T05:18:35.798Z,-3.80
2022-11-19T05:21:08.882Z,-4.30
2022-11-19T05:23:39.101Z,-4.10
2022-11-19T05:26:09.566Z,-4.30
2022-11-19T05:28:40.088Z,-4.00
2022-11-19T05:31:11.031Z,-3.90
2022-11-19T05:33:41.209Z,-3.90
2022-11-19T05:36:14.504Z,-4.10
2022-11-19T05:38:44.397Z,-4.10
2022-11-19T05:41:14.479Z,-4.10
2022-11-19T05:43:44.348Z,-4.70
2022-11-19T05:46:14.622Z,-4.50
2022-11-19T05:48:44.865Z,-5.10
2022-11-19T05:51:19.791Z,-4.80
2022-11-19T05:53:49.799Z,-4.80
2022-11-19T05:56:20.417Z,-4.90
2022-11-19T05:58:50.329Z,-5.50
2022-11-19T06:01:28.321Z,-5.20
2022-11-19T06:03:58.532Z,-5.30
2022-11-19T06:06:31.401Z,-5.70
2022-11-19T06:09:02.216Z,-5.30
2022-11-19T06:11:45.172Z,-5.90
2022-11-19T06:14:15.112Z,-6.30
2022-11-19T06:16:45.587Z,-6.40
2022-11-19T06:19:15.535Z,-6.60
2022-11-19T06:21:48.777Z,-6.70
2022-11-19T06:24:19.997Z,-6.50
2022-11-19T06:26:50.282Z,-6.40
2022-11-19T06:29:21.440Z,-6.40
2022-11-19T06:31:52.453Z,-6.40
2022-11-19T06:34:22.360Z,-6.60
2022-11-19T06:36:55.684Z,-6.80
2022-11-19T06:39:25.618Z,-6.40
2022-11-19T06:42:16.365Z,-6.50
2022-11-19T06:44:46.550Z,-6.50
2022-11-19T06:47:17.948Z,-6.50
2022-11-19T06:49:47.874Z,-6.80
2022-11-19T06:52:21.110Z,-6.60
2022-11-19T06:54:51.060Z,-6.50
2022-11-19T06:57:21.397Z,-6.60
2022-11-19T06:59:51.429Z,-6.50
2022-11-19T07:02:22.024Z,-6.30
2022-11-19T07:04:52.480Z,-6.30
2022-11-19T07:07:25.627Z,-6.00
2022-11-19T07:09:55.609Z,-6.20
2022-11-19T07:12:25.550Z,-6.10
2022-11-19T07:14:58.547Z,-6.40
2022-11-19T07:17:35.745Z,-6.40
2022-11-19T07:20:06.317Z,-6.20
2022-11-19T07:22:39.187Z,-6.30
2022-11-19T07:25:12.369Z,-6.40
2022-11-19T07:27:43.838Z,-6.40
2022-11-19T07:30:14.414Z,-6.00
2022-11-19T07:32:45.325Z,-6.30
2022-11-19T07:35:15.354Z,-6.00
2022-11-19T07:37:48.208Z,-6.20
2022-11-19T07:40:18.584Z,-6.20
2022-11-19T07:42:50.341Z,-5.90
2022-11-19T07:45:21.147Z,-5.40
2022-11-19T07:47:51.821Z,-5.00
2022-11-19T07:50:22.425Z,-4.90
2022-11-19T07:52:55.334Z,-4.30
2022-11-19T07:55:25.648Z,-4.30
2022-11-19T07:57:56.466Z,-4.10
2022-11-19T08:00:26.614Z,-3.90
2022-11-19T08:02:56.628Z,-3.50
2022-11-19T08:05:26.606Z,-3.20
2022-11-19T08:07:59.100Z,-3.10
2022-11-19T08:10:31.876Z,-2.90
2022-11-19T08:13:08.528Z,-2.90
2022-11-19T08:15:38.558Z,-2.80
2022-11-19T08:18:16.459Z,-2.60
2022-11-19T08:20:48.759Z,-2.40
2022-11-19T08:23:21.677Z,-2.30
2022-11-19T08:25:54.550Z,-2.40
2022-11-19T08:28:25.393Z,-2.40
2022-11-19T08:30:55.744Z,-2.30
2022-11-19T08:33:26.595Z,-2.30
2022-11-19T08:35:58.650Z,-2.00
2022-11-19T08:38:37.258Z,-2.00
2022-11-19T08:41:21.287Z,-1.80
2022-11-19T08:43:52.290Z,-1.40
2022-11-19T08:46:22.204Z,-1.30
2022-11-19T08:48:52.455Z,-1.30
2022-11-19T08:51:22.397Z,-1.10
2022-11-19T08:53:57.989Z,-1.00
2022-11-19T08:56:27.949Z,-1.00
2022-11-19T08:59:02.460Z,-1.10
2022-11-19T09:01:33.034Z,-1.10
2022-11-19T09:04:04.163Z,-0.70
2022-11-19T09:06:37.375Z,-1.10
2022-11-19T09:09:10.096Z,-1.30
2022-11-19T09:11:42.837Z,-1.00
2022-11-19T09:14:13.825Z,-1.20
2022-11-19T09:16:43.795Z,-1.10
2022-11-19T09:19:14.487Z,-0.70
2022-11-19T09:21:44.362Z,-0.90
2022-11-19T09:24:17.762Z,-0.20
2022-11-19T09:26:52.593Z,0.10
2022-11-19T09:29:23.822Z,0.00
2022-11-19T09:31:53.756Z,-0.30
2022-11-19T09:34:24.974Z,-0.20
2022-11-19T09:36:54.887Z,-0.20
2022-11-19T09:39:28.086Z,-1.00
2022-11-19T09:42:10.354Z,-1.00
2022-11-19T09:45:01.226Z,-1.00
2022-11-19T09:47:46.572Z,-0.80
2022-11-19T09:50:21.326Z,-0.20
2022-11-19T09:52:57.753Z,-0.30
2022-11-19T09:55:35.431Z,0.00
2022-11-19T09:58:10.150Z,0.10
2022-11-19T10:00:40.257Z,-0.20
2022-11-19T10:03:17.837Z,-0.30
2022-11-19T10:05:59.718Z,-0.10
2022-11-19T10:08:42.664Z,0.20
2022-11-19T10:11:27.136Z,0.10
2022-11-19T10:14:07.857Z,-0.10
2022-11-19T10:16:49.279Z,-0.10
2022-11-19T10:19:36.059Z,-0.10
2022-11-19T10:22:11.622Z,0.30
2022-11-19T10:24:46.346Z,0.30
2022-11-19T10:27:26.018Z,0.50
2022-11-19T10:30:00.737Z,0.40
2022-11-19T10:32:34.645Z,0.50
2022-11-19T10:35:10.601Z,0.50
2022-11-19T10:37:48.909Z,0.40
2022-11-19T10:40:22.565Z,0.30
2022-11-19T10:42:59.245Z,0.20
2022-11-19T10:45:31.392Z,0.30
2022-11-19T10:48:09.350Z,0.60
2022-11-19T10:50:39.902Z,0.50
2022-11-19T10:53:21.526Z,0.60
2022-11-19T10:55:55.116Z,1.10
2022-11-19T10:58:33.544Z,1.10
2022-11-19T11:01:07.887Z,0.90
2022-11-19T11:03:46.838Z,1.00
2022-11-19T11:06:17.104Z,0.90
2022-11-19T11:08:52.221Z,0.80
2022-11-19T11:11:47.337Z,0.60
2022-11-19T11:14:34.964Z,0.60
2022-11-19T11:17:07.400Z,0.60
2022-11-19T11:19:41.089Z,0.70
2022-11-19T11:22:12.204Z,0.80
2022-11-19T11:24:42.871Z,0.80
2022-11-19T11:27:26.115Z,1.00
2022-11-19T11:30:19.030Z,0.80
2022-11-19T11:32:49.407Z,1.00
2022-11-19T11:35:34.405Z,1.20
2022-11-19T11:38:06.169Z,1.80
2022-11-19T11:40:36.212Z,1.60
2022-11-19T11:43:07.428Z,1.80
2022-11-19T11:45:40.301Z,1.60
2022-11-19T11:48:19.398Z,1.50
2022-11-19T11:50:50.888Z,1.60
2022-11-19T11:53:32.070Z,1.50
2022-11-19T11:56:03.952Z,1.30
2022-11-19T11:58:37.498Z,1.60
2022-11-19T12:01:20.370Z,1.50
2022-11-19T12:03:58.197Z,1.50
2022-11-19T12:06:31.921Z,1.90
2022-11-19T12:09:09.106Z,2.40
2022-11-19T12:11:58.910Z,2.30
2022-11-19T12:14:34.175Z,2.20
2022-11-19T12:17:31.186Z,2.20
2022-11-19T12:20:21.187Z,2.20
2022-11-19T12:23:19.164Z,2.10
2022-11-19T12:26:04.782Z,2.10
2022-11-19T12:28:57.055Z,2.00
2022-11-19T12:31:40.706Z,2.20
2022-11-19T12:34:46.282Z,2.50
2022-11-19T12:37:42.261Z,2.10
2022-11-19T12:40:24.469Z,1.80
2022-11-19T12:43:05.891Z,2.30
2022-11-19T12:45:44.189Z,2.10
2022-11-19T12:48:48.510Z,2.30
2022-11-19T12:51:31.350Z,2.40
2022-11-19T12:54:35.278Z,2.10
2022-11-19T12:57:21.788Z,2.60
2022-11-19T13:00:12.916Z,2.40
2022-11-19T13:02:54.674Z,2.70
2022-11-19T13:05:29.526Z,2.40
2022-11-19T13:08:06.646Z,2.30
2022-11-19T13:10:46.405Z,1.90
2022-11-19T13:13:22.035Z,2.10
2022-11-19T13:16:01.619Z,2.20
2022-11-19T13:18:35.729Z,2.40
2022-11-19T13:21:09.052Z,2.70
2022-11-19T13:23:43.442Z,3.00
2022-11-19T13:26:18.807Z,3.00
2022-11-19T13:28:56.599Z,2.50
2022-11-19T13:31:38.263Z,2.20
2022-11-19T13:34:21.122Z,2.10
2022-11-19T13:37:02.404Z,1.90
2022-11-19T13:39:38.862Z,1.70
2022-11-19T13:42:25.461Z,2.10
2022-11-19T13:44:58.585Z,2.30
2022-11-19T13:47:34.452Z,2.40
2022-11-19T13:50:09.342Z,2.50
2022-11-19T13:52:47.968Z,2.40
2022-11-19T13:55:36.176Z,2.40
2022-11-19T13:58:26.596Z,2.00
2022-11-19T14:01:35.637Z,1.70
2022-11-19T14:04:38.647Z,1.90
2022-11-19T14:07:30.969Z,1.60
2022-11-19T14:10:11.529Z,1.60
2022-11-19T14:13:08.427Z,1.30
2022-11-19T14:16:19.105Z,1.10
2022-11-19T14:19:05.684Z,1.20
2022-11-19T14:22:02.649Z,1.00
2022-11-19T14:25:11.234Z,1.00
2022-11-19T14:27:42.337Z,1.00
2022-11-19T14:30:22.945Z,0.90
2022-11-19T14:32:56.115Z,0.80
2022-11-19T14:35:42.283Z,0.80
2022-11-19T14:38:41.094Z,0.60
2022-11-19T14:41:35.214Z,0.50
2022-11-19T14:44:10.337Z,0.40
2022-11-19T14:46:43.272Z,0.60
2022-11-19T14:49:40.894Z,0.40
2022-11-19T14:52:23.253Z,0.10
2022-11-19T14:54:58.414Z,0.10
2022-11-19T14:57:32.810Z,-0.20
2022-11-19T15:00:06.783Z,-0.50
2022-11-19T15:02:45.785Z,-0.40
2022-11-19T15:05:23.801Z,-0.20
2022-11-19T15:07:56.502Z,-0.40
2022-11-19T15:10:48.452Z,-0.50
2022-11-19T15:13:30.044Z,-0.60
2022-11-19T15:16:14.427Z,-0.60
2022-11-19T15:19:23.758Z,-1.00
2022-11-19T15:22:36.086Z,-0.60
2022-11-19T15:25:30.118Z,-1.00
2022-11-19T15:28:09.906Z,-0.50
2022-11-19T15:31:00.143Z,-0.70
2022-11-19T15:33:49.517Z,-0.50
2022-11-19T15:36:32.817Z,-0.80
2022-11-19T15:39:11.331Z,-0.80
2022-11-19T15:42:03.241Z,-1.00
2022-11-19T15:44:43.239Z,-1.00
2022-11-19T15:47:17.504Z,-1.10
2022-11-19T15:49:49.745Z,-1.00
2022-11-19T15:52:27.719Z,-1.30
2022-11-19T15:55:14.075Z,-1.30
2022-11-19T15:57:52.325Z,-1.20
2022-11-19T16:00:28.900Z,-1.50
2022-11-19T16:02:59.082Z,-1.80
2022-11-19T16:05:33.134Z,-1.70
2022-11-19T16:08:09.456Z,-1.70
2022-11-19T16:10:44.682Z,-1.30
2022-11-19T16:13:39.375Z,-1.30
2022-11-19T16:16:30.972Z,-1.60
2022-11-19T16:19:10.432Z,-1.60
2022-11-19T16:21:43.247Z,-2.00
2022-11-19T16:24:31.724Z,-2.40
2022-11-19T16:27:05.508Z,-2.70
2022-11-19T16:29:44.206Z,-2.50
2022-11-19T16:32:24.885Z,-2.80
2022-11-19T16:34:55.545Z,-2.70
2022-11-19T16:37:25.940Z,-3.10
2022-11-19T16:39:57.087Z,-3.40
2022-11-19T16:42:29.260Z,-3.20
2022-11-19T16:45:20.151Z,-3.30
2022-11-19T16:47:59.275Z,-3.50
2022-11-19T16:50:36.036Z,-3.30
2022-11-19T16:53:07.505Z,-3.10
2022-11-19T16:55:45.745Z,-3.20
2022-11-19T16:58:21.227Z,-3.00
2022-11-19T17:01:00.193Z,-3.10
2022-11-19T17:03:39.717Z,-3.50
2022-11-19T17:06:12.030Z,-3.50
2022-11-19T17:08:42.597Z,-3.40
2022-11-19T17:11:36.929Z,-3.80
2022-11-19T17:14:23.382Z,-3.80
2022-11-19T17:16:56.736Z,-3.70
2022-11-19T17:19:33.638Z,-3.60
2022-11-19T17:22:06.152Z,-3.90
2022-11-19T17:24:42.859Z,-4.00
2022-11-19T17:27:25.394Z,-3.90
2022-11-19T17:29:59.025Z,-3.90
2022-11-19T17:32:36.455Z,-4.30
2022-11-19T17:35:10.668Z,-4.00
2022-11-19T17:37:43.602Z,-4.10
2022-11-19T17:40:15.199Z,-4.30
2022-11-19T17:42:57.556Z,-4.40
2022-11-19T17:45:31.085Z,-4.20
2022-11-19T17:48:04.099Z,-4.40
2022-11-19T17:50:34.330Z,-4.60
2022-11-19T17:53:04.256Z,-4.60
2022-11-19T17:55:34.912Z,-4.50
2022-11-19T17:58:04.830Z,-4.40
2022-11-19T18:00:35.118Z,-4.50
2022-11-19T18:03:09.255Z,-4.70
2022-11-19T18:05:43.219Z,-4.60
2022-11-19T18:08:13.202Z,-4.70
2022-11-19T18:10:45.982Z,-4.60
2022-11-19T18:13:22.222Z,-4.60
2022-11-19T18:15:53.251Z,-4.80
2022-11-19T18:18:25.796Z,-4.90
2022-11-19T18:21:01.627Z,-4.70
2022-11-19T18:23:33.434Z,-4.90
2022-11-19T18:26:03.629Z,-4.90
2022-11-19T18:28:33.936Z,-4.70
2022-11-19T18:31:05.506Z,-4.80
2022-11-19T18:33:39.135Z,-5.00
2022-11-19T18:36:09.859Z,-5.30
2022-11-19T18:38:39.806Z,-5.20
